Time;durP1;ratioP1;P1;durP2;ratioP2;P2;SDS_P1;SDS_P2;PMS_P1;PMS_P2;Temp;Humidity;BMP_temperature;BMP_pressure;BME280_temperature;BME280_humidity;BME280_pressure;Samples;Min_cycle;Max_cycle;Signal;HPM_P1;HPM_P2
2022/06/18 00:02:12;;;;;;;0.90;0.90;;;;;;;;;;5052010;28;20982;-75
2022/06/18 00:04:47;;;;;;;0.80;0.80;;;;;;;;;;5069046;28;20432;-74
2022/06/18 00:07:15;;;;;;;0.70;0.60;;;;;;;;;;5070960;28;21021;-74
2022/06/18 00:09:44;;;;;;;0.80;0.70;;;;;;;;;;5052451;28;20790;-75
2022/06/18 00:15:00;;;;;;;0.80;0.70;;;;;;;;;;5052129;28;20452;-73
2022/06/18 00:17:27;;;;;;;0.80;0.70;;;;;;;;;;5052300;28;20987;-73
2022/06/18 00:19:53;;;;;;;0.80;0.70;;;;;;;;;;5053675;28;20936;-74
2022/06/18 00:22:22;;;;;;;0.80;0.70;;;;;;;;;;5035125;28;20560;-75
2022/06/18 00:24:50;;;;;;;0.80;0.80;;;;;;;;;;5052315;28;20446;-74
2022/06/18 00:27:17;;;;;;;0.80;0.70;;;;;;;;;;5052455;28;20471;-73
2022/06/18 00:29:45;;;;;;;0.80;0.70;;;;;;;;;;5068733;28;20436;-73
2022/06/18 00:32:14;;;;;;;0.80;0.73;;;;;;;;;;5035864;28;20516;-74
2022/06/18 00:34:42;;;;;;;0.73;0.67;;;;;;;;;;5051936;28;20511;-73
2022/06/18 00:37:12;;;;;;;0.70;0.60;;;;;;;;;;5051383;28;20456;-73
2022/06/18 00:39:40;;;;;;;0.80;0.70;;;;;;;;;;5051170;28;20465;-74
2022/06/18 00:42:14;;;;;;;0.70;0.67;;;;;;;;;;5052158;28;20432;-76
2022/06/18 00:44:51;;;;;;;0.80;0.60;;;;;;;;;;5052216;28;20913;-74
2022/06/18 00:47:21;;;;;;;0.80;0.70;;;;;;;;;;5052311;28;20585;-74
2022/06/18 00:49:51;;;;;;;0.80;0.70;;;;;;;;;;5052147;28;20447;-75
2022/06/18 00:52:22;;;;;;;0.70;0.60;;;;;;;;;;5051118;28;20956;-73
2022/06/18 00:54:52;;;;;;;0.80;0.80;;;;;;;;;;5052090;28;20423;-73
2022/06/18 00:57:23;;;;;;;0.80;0.70;;;;;;;;;;5051439;28;20931;-73
2022/06/18 00:59:53;;;;;;;0.97;0.90;;;;;;;;;;5051704;28;20435;-74
2022/06/18 01:02:26;;;;;;;0.70;0.60;;;;;;;;;;5052217;28;20455;-74
2022/06/18 01:04:55;;;;;;;0.80;0.80;;;;;;;;;;5051341;28;20458;-74
2022/06/18 01:07:25;;;;;;;0.70;0.60;;;;;;;;;;5053406;28;20983;-77
2022/06/18 01:09:54;;;;;;;0.80;0.70;;;;;;;;;;5051206;28;20474;-77
2022/06/18 01:12:23;;;;;;;0.80;0.70;;;;;;;;;;5035704;28;20430;-78
2022/06/18 01:15:00;;;;;;;0.80;0.77;;;;;;;;;;5050971;28;20459;-77
2022/06/18 01:17:34;;;;;;;0.70;0.60;;;;;;;;;;5048253;28;21006;-78
2022/06/18 01:20:05;;;;;;;0.80;0.70;;;;;;;;;;5047210;28;20531;-78
2022/06/18 01:22:38;;;;;;;0.80;0.80;;;;;;;;;;5047211;28;20684;-77
2022/06/18 01:25:09;;;;;;;0.70;0.60;;;;;;;;;;5050068;28;20846;-78
2022/06/18 01:27:41;;;;;;;1.37;1.27;;;;;;;;;;5035175;28;20469;-78
2022/06/18 01:30:23;;;;;;;0.80;0.70;;;;;;;;;;5037125;28;20466;-77
2022/06/18 01:32:53;;;;;;;0.97;0.87;;;;;;;;;;5034854;28;20525;-77
2022/06/18 01:35:31;;;;;;;0.70;0.60;;;;;;;;;;5035381;28;20538;-80
2022/06/18 01:38:08;;;;;;;1.77;0.97;;;;;;;;;;5051369;28;20447;-78
2022/06/18 01:40:40;;;;;;;0.80;0.70;;;;;;;;;;5050256;28;20450;-78
2022/06/18 01:43:12;;;;;;;0.77;0.70;;;;;;;;;;5050202;28;20871;-80
2022/06/18 01:45:41;;;;;;;0.80;0.80;;;;;;;;;;5051511;28;20952;-78
2022/06/18 01:48:20;;;;;;;0.73;0.63;;;;;;;;;;5052163;28;20477;-78
2022/06/18 01:50:51;;;;;;;0.80;0.73;;;;;;;;;;5051935;28;20467;-78
2022/06/18 01:53:22;;;;;;;0.70;0.60;;;;;;;;;;5050648;28;20449;-79
2022/06/18 01:55:53;;;;;;;0.70;0.67;;;;;;;;;;5052397;28;20447;-79
2022/06/18 01:58:25;;;;;;;0.70;0.60;;;;;;;;;;5051975;28;20449;-78
2022/06/18 02:00:58;;;;;;;0.80;0.70;;;;;;;;;;5048950;28;20536;-79
2022/06/18 02:03:28;;;;;;;0.70;0.60;;;;;;;;;;5039321;28;20457;-78
2022/06/18 02:05:57;;;;;;;0.70;0.60;;;;;;;;;;5038892;28;20468;-78
2022/06/18 02:08:25;;;;;;;1.63;0.90;;;;;;;;;;5055283;28;20444;-79
2022/06/18 02:10:57;;;;;;;0.80;0.70;;;;;;;;;;5053719;28;20442;-79
2022/06/18 02:13:29;;;;;;;0.70;0.70;;;;;;;;;;5054406;28;20462;-78
2022/06/18 02:15:57;;;;;;;0.80;0.70;;;;;;;;;;5054758;28;20441;-79
2022/06/18 02:18:24;;;;;;;0.77;0.70;;;;;;;;;;5054774;28;20447;-78
2022/06/18 02:20:52;;;;;;;0.80;0.70;;;;;;;;;;5055966;28;20466;-79
2022/06/18 02:23:20;;;;;;;0.70;0.60;;;;;;;;;;5054834;28;20493;-78
2022/06/18 02:25:49;;;;;;;0.80;0.70;;;;;;;;;;5055171;28;20508;-78
2022/06/18 02:28:21;;;;;;;0.73;0.63;;;;;;;;;;5055725;28;20470;-78
2022/06/18 02:30:49;;;;;;;0.80;0.70;;;;;;;;;;5037389;28;20454;-78
2022/06/18 02:33:28;;;;;;;0.80;0.70;;;;;;;;;;5054534;28;20427;-78
2022/06/18 02:35:55;;;;;;;0.70;0.60;;;;;;;;;;5053898;28;20502;-78
2022/06/18 02:38:23;;;;;;;0.80;0.70;;;;;;;;;;5045770;28;20444;-78
2022/06/18 02:40:49;;;;;;;0.83;0.83;;;;;;;;;;5067328;28;20502;-78
2022/06/18 02:43:17;;;;;;;0.70;0.70;;;;;;;;;;5028427;28;20474;-78
2022/06/18 02:45:49;;;;;;;0.80;0.70;;;;;;;;;;5038148;28;20951;-79
2022/06/18 02:48:16;;;;;;;0.70;0.60;;;;;;;;;;5036503;28;20466;-78
2022/06/18 02:50:44;;;;;;;0.80;0.70;;;;;;;;;;5057745;28;20508;-78
2022/06/18 02:53:12;;;;;;;0.70;0.70;;;;;;;;;;5017853;28;20881;-78
2022/06/18 02:55:41;;;;;;;0.80;0.70;;;;;;;;;;5034015;28;20455;-79
2022/06/18 02:58:12;;;;;;;0.80;0.67;;;;;;;;;;5045506;28;20438;-78
2022/06/18 03:00:44;;;;;;;1.10;0.80;;;;;;;;;;5037836;28;20979;-78
2022/06/18 03:03:15;;;;;;;0.80;0.70;;;;;;;;;;5037119;28;20562;-78
2022/06/18 03:05:42;;;;;;;0.70;0.60;;;;;;;;;;5052891;28;20440;-78
2022/06/18 03:08:09;;;;;;;0.80;0.70;;;;;;;;;;5053005;28;20468;-78
2022/06/18 03:13:21;;;;;;;0.70;0.60;;;;;;;;;;5053966;28;20499;-78
2022/06/18 03:15:50;;;;;;;0.70;0.70;;;;;;;;;;5053338;28;20866;-77
2022/06/18 03:18:19;;;;;;;0.70;0.60;;;;;;;;;;5053519;28;20780;-77
2022/06/18 03:20:57;;;;;;;0.70;0.60;;;;;;;;;;5053329;28;21050;-78
2022/06/18 03:23:25;;;;;;;0.80;0.70;;;;;;;;;;5053551;28;20513;-77
2022/06/18 03:25:55;;;;;;;0.70;0.70;;;;;;;;;;5036725;28;20444;-77
2022/06/18 03:28:23;;;;;;;0.70;0.63;;;;;;;;;;5053144;28;20812;-76
2022/06/18 03:30:51;;;;;;;0.80;0.70;;;;;;;;;;5039979;28;20447;-77
2022/06/18 03:33:19;;;;;;;0.70;0.70;;;;;;;;;;5070319;28;20459;-76
2022/06/18 03:35:47;;;;;;;0.70;0.70;;;;;;;;;;5053179;28;20469;-77
2022/06/18 03:38:22;;;;;;;0.73;0.70;;;;;;;;;;5053315;28;20971;-76
2022/06/18 03:40:51;;;;;;;0.80;0.70;;;;;;;;;;5036361;28;20550;-77
2022/06/18 03:43:19;;;;;;;0.80;0.70;;;;;;;;;;5036768;28;20454;-78
2022/06/18 03:45:48;;;;;;;0.70;0.60;;;;;;;;;;5036217;28;20478;-77
2022/06/18 03:48:18;;;;;;;0.80;0.70;;;;;;;;;;5053270;28;20469;-77
2022/06/18 03:50:46;;;;;;;0.80;0.70;;;;;;;;;;5036487;28;20436;-77
2022/06/18 03:53:13;;;;;;;0.70;0.70;;;;;;;;;;5053231;28;20533;-78
2022/06/18 03:55:47;;;;;;;0.80;0.70;;;;;;;;;;5054392;28;20419;-78
2022/06/18 03:58:15;;;;;;;0.70;0.60;;;;;;;;;;5052582;28;20430;-77
2022/06/18 04:00:42;;;;;;;0.70;0.60;;;;;;;;;;5052307;28;20447;-78
2022/06/18 04:03:09;;;;;;;0.70;0.60;;;;;;;;;;5052421;28;20940;-78
2022/06/18 04:05:37;;;;;;;0.73;0.67;;;;;;;;;;5052543;28;20504;-78
2022/06/18 04:08:06;;;;;;;0.70;0.70;;;;;;;;;;5036031;28;20506;-78
2022/06/18 04:10:39;;;;;;;0.80;0.70;;;;;;;;;;5052301;28;20447;-78
2022/06/18 04:13:06;;;;;;;0.70;0.70;;;;;;;;;;5052419;28;20525;-77
2022/06/18 04:15:47;;;;;;;0.70;0.70;;;;;;;;;;5052257;28;20454;-78
2022/06/18 04:18:42;;;;;;;0.80;0.80;;;;;;;;;;5062786;28;20440;-77
2022/06/18 04:21:11;;;;;;;0.73;0.70;;;;;;;;;;5036486;28;20931;-78
2022/06/18 04:23:41;;;;;;;0.70;0.63;;;;;;;;;;5032351;28;20449;-78
2022/06/18 04:26:09;;;;;;;1.27;1.00;;;;;;;;;;5016088;28;20438;-77
2022/06/18 04:28:38;;;;;;;0.80;0.70;;;;;;;;;;5033088;28;20480;-77
2022/06/18 04:31:11;;;;;;;0.80;0.70;;;;;;;;;;5065393;28;20437;-78
2022/06/18 04:33:41;;;;;;;0.70;0.60;;;;;;;;;;5047833;28;20451;-78
2022/06/18 04:36:38;;;;;;;0.80;0.80;;;;;;;;;;5055949;28;20530;-78
2022/06/18 04:39:29;;;;;;;0.70;0.70;;;;;;;;;;5046112;28;20458;-78
2022/06/18 04:42:26;;;;;;;0.77;0.70;;;;;;;;;;5050881;28;20887;-77
2022/06/18 04:44:54;;;;;;;0.77;0.70;;;;;;;;;;5051528;28;20452;-77
2022/06/18 04:47:27;;;;;;;0.70;0.70;;;;;;;;;;5051848;28;20468;-78
2022/06/18 04:49:55;;;;;;;0.80;0.80;;;;;;;;;;5052112;28;20526;-77
2022/06/18 04:52:22;;;;;;;0.80;0.70;;;;;;;;;;5051672;28;20885;-77
2022/06/18 04:54:57;;;;;;;0.80;0.70;;;;;;;;;;5051555;28;20416;-77
2022/06/18 04:57:24;;;;;;;0.70;0.70;;;;;;;;;;5051597;28;20499;-78
2022/06/18 04:59:53;;;;;;;0.80;0.73;;;;;;;;;;5051837;28;21019;-78
2022/06/18 05:02:21;;;;;;;0.80;0.70;;;;;;;;;;5035334;28;20505;-78
2022/06/18 05:05:12;;;;;;;0.70;0.60;;;;;;;;;;5033971;28;20436;-78
2022/06/18 05:07:54;;;;;;;0.77;0.70;;;;;;;;;;5051419;28;20467;-77
2022/06/18 05:10:35;;;;;;;0.80;0.70;;;;;;;;;;5050258;28;20948;-77
2022/06/18 05:13:11;;;;;;;0.80;0.77;;;;;;;;;;5051668;28;20449;-78
2022/06/18 05:15:49;;;;;;;0.80;0.70;;;;;;;;;;5051130;28;20440;-78
2022/06/18 05:18:17;;;;;;;0.80;0.80;;;;;;;;;;5035195;28;20433;-78
2022/06/18 05:20:52;;;;;;;0.80;0.70;;;;;;;;;;5042888;28;20556;-77
2022/06/18 05:23:22;;;;;;;0.70;0.70;;;;;;;;;;5052611;28;20439;-78
2022/06/18 05:25:54;;;;;;;1.03;1.00;;;;;;;;;;5042559;28;20445;-77
2022/06/18 05:28:21;;;;;;;0.70;0.60;;;;;;;;;;5053642;28;20521;-78
2022/06/18 05:30:48;;;;;;;0.73;0.67;;;;;;;;;;5055182;28;20473;-78
2022/06/18 05:33:15;;;;;;;0.80;0.70;;;;;;;;;;5055355;28;20513;-77
2022/06/18 05:35:47;;;;;;;0.70;0.60;;;;;;;;;;5055415;28;20874;-78
2022/06/18 05:38:16;;;;;;;0.80;0.80;;;;;;;;;;5055415;28;20455;-78
2022/06/18 05:40:43;;;;;;;0.80;0.70;;;;;;;;;;5053582;28;20978;-77
2022/06/18 05:43:11;;;;;;;0.80;0.60;;;;;;;;;;5056681;28;20463;-78
2022/06/18 05:45:38;;;;;;;0.80;0.70;;;;;;;;;;5054840;28;20570;-78
2022/06/18 05:48:10;;;;;;;0.70;0.70;;;;;;;;;;5039430;28;20542;-78
2022/06/18 05:50:37;;;;;;;1.00;0.80;;;;;;;;;;5054621;28;20435;-78
2022/06/18 05:53:04;;;;;;;0.97;0.87;;;;;;;;;;5054816;28;20440;-78
2022/06/18 05:55:46;;;;;;;1.07;0.97;;;;;;;;;;5054564;28;20943;-78
2022/06/18 05:58:34;;;;;;;0.80;0.70;;;;;;;;;;5056593;28;20542;-77
2022/06/18 06:01:10;;;;;;;0.80;0.70;;;;;;;;;;5039651;28;20439;-78
2022/06/18 06:03:37;;;;;;;0.70;0.60;;;;;;;;;;5034822;28;20924;-78
2022/06/18 06:06:05;;;;;;;1.00;0.90;;;;;;;;;;5030742;28;20479;-78
2022/06/18 06:08:35;;;;;;;0.80;0.60;;;;;;;;;;5054917;28;20829;-78
2022/06/18 06:13:49;;;;;;;0.80;0.70;;;;;;;;;;5055218;28;20932;-78
2022/06/18 06:16:16;;;;;;;0.80;0.70;;;;;;;;;;5059131;28;20420;-78
2022/06/18 06:18:43;;;;;;;0.80;0.70;;;;;;;;;;5074769;28;20432;-78
2022/06/18 06:21:10;;;;;;;0.80;0.70;;;;;;;;;;5058180;28;21031;-78
2022/06/18 06:23:36;;;;;;;0.80;0.77;;;;;;;;;;5058648;28;20445;-78
2022/06/18 06:26:06;;;;;;;0.77;0.67;;;;;;;;;;5056148;28;20419;-78
2022/06/18 06:28:32;;;;;;;0.80;0.60;;;;;;;;;;5057933;28;20459;-78
2022/06/18 06:31:02;;;;;;;0.93;0.90;;;;;;;;;;5055631;28;20468;-78
2022/06/18 06:33:29;;;;;;;0.70;0.60;;;;;;;;;;5055108;28;20416;-78
2022/06/18 06:35:57;;;;;;;0.80;0.70;;;;;;;;;;5054553;28;20575;-78
2022/06/18 06:38:24;;;;;;;0.80;0.80;;;;;;;;;;5055254;28;20448;-77
2022/06/18 06:40:51;;;;;;;0.80;0.80;;;;;;;;;;5057121;28;20428;-78
2022/06/18 06:43:18;;;;;;;0.70;0.70;;;;;;;;;;5060849;28;20451;-78
2022/06/18 06:45:48;;;;;;;0.80;0.73;;;;;;;;;;5041579;28;20417;-78
2022/06/18 06:48:16;;;;;;;0.80;0.80;;;;;;;;;;5054055;28;20442;-78
2022/06/18 06:50:46;;;;;;;0.80;0.70;;;;;;;;;;5070620;28;20391;-79
2022/06/18 06:53:14;;;;;;;0.80;0.70;;;;;;;;;;5071165;28;20448;-79
2022/06/18 06:58:26;;;;;;;0.80;0.60;;;;;;;;;;5054088;28;20563;-80
2022/06/18 07:00:55;;;;;;;0.80;0.70;;;;;;;;;;5054228;28;20433;-79
2022/06/18 07:03:27;;;;;;;0.80;0.60;;;;;;;;;;5054012;28;20498;-79
2022/06/18 07:05:58;;;;;;;0.83;0.83;;;;;;;;;;5054086;28;20431;-79
2022/06/18 07:08:25;;;;;;;0.70;0.60;;;;;;;;;;5050365;28;20471;-80
2022/06/18 07:10:52;;;;;;;0.80;0.60;;;;;;;;;;5053682;28;20450;-79
2022/06/18 07:13:27;;;;;;;0.70;0.60;;;;;;;;;;5054162;28;20431;-78
2022/06/18 07:15:55;;;;;;;1.87;0.90;;;;;;;;;;5053448;28;20948;-78
2022/06/18 07:18:25;;;;;;;0.80;0.73;;;;;;;;;;5036993;28;20583;-78
2022/06/18 07:20:52;;;;;;;0.80;0.70;;;;;;;;;;5033602;28;20476;-78
2022/06/18 07:23:18;;;;;;;0.80;0.60;;;;;;;;;;5034219;28;20416;-78
2022/06/18 07:25:48;;;;;;;0.80;0.70;;;;;;;;;;5053877;28;20426;-79
2022/06/18 07:28:15;;;;;;;0.80;0.70;;;;;;;;;;5053631;28;20950;-79
2022/06/18 07:30:43;;;;;;;0.80;0.70;;;;;;;;;;5053316;28;20498;-79
2022/06/18 07:33:12;;;;;;;0.80;0.70;;;;;;;;;;5069895;28;20486;-80
2022/06/18 07:35:40;;;;;;;0.80;0.70;;;;;;;;;;5047790;28;20537;-81
2022/06/18 07:38:09;;;;;;;0.80;0.70;;;;;;;;;;5069723;28;20432;-80
2022/06/18 07:40:41;;;;;;;0.70;0.60;;;;;;;;;;5032479;28;20449;-79
2022/06/18 07:43:08;;;;;;;0.87;0.80;;;;;;;;;;5049979;28;21019;-79
2022/06/18 07:45:35;;;;;;;0.70;0.70;;;;;;;;;;5033120;28;20457;-80
2022/06/18 07:48:02;;;;;;;0.70;0.60;;;;;;;;;;5049146;28;20519;-81
2022/06/18 07:50:30;;;;;;;0.70;0.60;;;;;;;;;;5053016;28;20455;-84
2022/06/18 07:52:58;;;;;;;0.80;0.70;;;;;;;;;;5054424;28;20835;-80
2022/06/18 07:55:26;;;;;;;0.93;0.83;;;;;;;;;;5053294;28;20463;-80
2022/06/18 07:57:53;;;;;;;0.77;0.63;;;;;;;;;;5052858;28;20502;-81
2022/06/18 08:00:21;;;;;;;0.80;0.70;;;;;;;;;;5053026;28;20444;-78
2022/06/18 08:02:49;;;;;;;0.80;0.60;;;;;;;;;;5053529;28;20459;-80
2022/06/18 08:05:18;;;;;;;6.80;1.07;;;;;;;;;;5036632;28;20505;-79
2022/06/18 08:07:45;;;;;;;1.00;0.90;;;;;;;;;;5053843;28;20968;-80
2022/06/18 08:10:34;;;;;;;2.40;2.20;;;;;;;;;;5052328;28;20732;-79
2022/06/18 08:13:01;;;;;;;0.80;0.67;;;;;;;;;;5052814;28;20518;-79
2022/06/18 08:15:27;;;;;;;0.70;0.60;;;;;;;;;;5035806;28;20436;-78
2022/06/18 08:17:54;;;;;;;0.77;0.67;;;;;;;;;;5053474;28;20433;-79
2022/06/18 08:20:42;;;;;;;0.70;0.60;;;;;;;;;;5038565;28;20436;-79
2022/06/18 08:23:09;;;;;;;0.80;0.70;;;;;;;;;;5052526;28;20440;-79
2022/06/18 08:25:39;;;;;;;1.10;0.80;;;;;;;;;;5054116;28;20739;-78
2022/06/18 08:28:12;;;;;;;0.80;0.80;;;;;;;;;;5051872;28;20462;-78
2022/06/18 08:30:41;;;;;;;0.73;0.60;;;;;;;;;;5052158;28;20438;-78
2022/06/18 08:33:09;;;;;;;0.97;0.90;;;;;;;;;;5048110;28;20448;-78
2022/06/18 08:35:37;;;;;;;1.00;0.70;;;;;;;;;;5053255;28;20424;-80
2022/06/18 08:38:05;;;;;;;0.80;0.70;;;;;;;;;;5051165;28;20466;-79
2022/06/18 08:40:37;;;;;;;0.80;0.60;;;;;;;;;;5052358;28;20857;-79
2022/06/18 08:43:14;;;;;;;0.70;0.60;;;;;;;;;;5035773;28;20897;-82
2022/06/18 08:45:43;;;;;;;0.80;0.60;;;;;;;;;;5051988;28;20948;-80
2022/06/18 08:48:24;;;;;;;0.90;0.80;;;;;;;;;;5053686;28;20519;-80
2022/06/18 08:50:54;;;;;;;0.80;0.70;;;;;;;;;;5035532;28;20567;-80
2022/06/18 08:53:32;;;;;;;0.73;0.60;;;;;;;;;;5052767;28;20471;-79
2022/06/18 08:56:02;;;;;;;0.70;0.60;;;;;;;;;;5035486;28;20527;-80
2022/06/18 08:58:35;;;;;;;0.80;0.60;;;;;;;;;;5051985;28;20502;-79
2022/06/18 09:01:05;;;;;;;0.80;0.70;;;;;;;;;;5052083;28;20495;-81
2022/06/18 09:03:36;;;;;;;0.70;0.60;;;;;;;;;;5051691;28;20467;-81
2022/06/18 09:06:25;;;;;;;0.80;0.70;;;;;;;;;;5051970;28;20868;-80
2022/06/18 09:08:55;;;;;;;0.70;0.50;;;;;;;;;;5052039;28;20474;-80
2022/06/18 09:11:25;;;;;;;0.83;0.60;;;;;;;;;;5035184;28;20444;-78
2022/06/18 09:13:54;;;;;;;0.70;0.50;;;;;;;;;;5051630;28;20444;-79
2022/06/18 09:16:23;;;;;;;0.70;0.60;;;;;;;;;;5051699;28;20801;-80
2022/06/18 09:18:52;;;;;;;0.80;0.70;;;;;;;;;;5051947;28;20424;-79
2022/06/18 09:21:22;;;;;;;0.70;0.60;;;;;;;;;;5054290;28;20538;-80
2022/06/18 09:23:52;;;;;;;0.80;0.60;;;;;;;;;;5051757;28;20436;-78
2022/06/18 09:26:22;;;;;;;0.70;0.60;;;;;;;;;;5051898;28;20527;-80
2022/06/18 09:28:50;;;;;;;0.77;0.50;;;;;;;;;;5035110;28;20526;-83
2022/06/18 09:31:21;;;;;;;0.90;0.80;;;;;;;;;;5035605;28;20542;-80
2022/06/18 09:33:52;;;;;;;0.80;0.60;;;;;;;;;;5052174;28;20439;-83
2022/06/18 09:36:20;;;;;;;0.90;0.60;;;;;;;;;;5051636;28;20534;-83
2022/06/18 09:38:57;;;;;;;0.80;0.50;;;;;;;;;;5046240;28;20429;-82
2022/06/18 09:41:27;;;;;;;0.80;0.50;;;;;;;;;;5016559;28;20540;-81
2022/06/18 09:43:57;;;;;;;0.80;0.60;;;;;;;;;;5032774;28;20418;-87
2022/06/18 09:46:31;;;;;;;0.90;0.70;;;;;;;;;;5050359;28;20456;-86
2022/06/18 09:48:58;;;;;;;2.43;1.23;;;;;;;;;;5051623;28;20496;-79
2022/06/18 09:51:31;;;;;;;1.50;1.40;;;;;;;;;;5051811;28;20845;-84
2022/06/18 09:53:58;;;;;;;1.00;0.70;;;;;;;;;;5068101;28;20474;-83
2022/06/18 09:56:29;;;;;;;0.83;0.60;;;;;;;;;;5067813;28;20440;-86
2022/06/18 09:58:58;;;;;;;1.07;0.73;;;;;;;;;;5051144;28;20439;-86
2022/06/18 10:01:30;;;;;;;0.87;0.60;;;;;;;;;;5051096;28;20538;-84
2022/06/18 10:06:55;;;;;;;1.43;1.33;;;;;;;;;;5052442;28;20463;-86
2022/06/18 10:09:42;;;;;;;0.90;0.60;;;;;;;;;;5051530;28;20494;-85
2022/06/18 10:12:14;;;;;;;0.90;0.60;;;;;;;;;;5052669;28;20455;-86
2022/06/18 10:14:43;;;;;;;0.90;0.50;;;;;;;;;;5039000;28;20443;-86
2022/06/18 10:17:16;;;;;;;1.83;1.73;;;;;;;;;;5055224;28;20457;-83
2022/06/18 10:19:53;;;;;;;0.90;0.50;;;;;;;;;;5056294;28;20230;-86
2022/06/18 10:22:24;;;;;;;0.90;0.60;;;;;;;;;;5038288;28;20220;-85
2022/06/18 10:24:54;;;;;;;0.90;0.60;;;;;;;;;;5054910;28;20250;-83
2022/06/18 10:27:30;;;;;;;0.90;0.60;;;;;;;;;;5054348;28;20231;-81
2022/06/18 10:30:01;;;;;;;0.90;0.50;;;;;;;;;;5038095;28;20192;-85
2022/06/18 10:32:37;;;;;;;0.90;0.50;;;;;;;;;;5054667;28;20291;-85
2022/06/18 10:35:09;;;;;;;0.90;0.70;;;;;;;;;;5054451;28;20280;-86
2022/06/18 10:37:42;;;;;;;1.00;0.80;;;;;;;;;;5052011;28;20217;-85
2022/06/18 10:40:33;;;;;;;1.08;0.75;;;;;;;;;;5054982;28;20658;-85
2022/06/18 10:43:09;;;;;;;1.00;0.77;;;;;;;;;;5054317;28;20192;-84
2022/06/18 10:45:40;;;;;;;1.00;0.70;;;;;;;;;;5054161;28;20599;-85
2022/06/18 10:48:11;;;;;;;0.90;0.70;;;;;;;;;;5054608;28;20218;-83
2022/06/18 10:50:43;;;;;;;1.00;0.60;;;;;;;;;;5054251;28;20757;-83
2022/06/18 10:53:13;;;;;;;1.00;0.60;;;;;;;;;;5054370;28;20322;-83
2022/06/18 10:55:41;;;;;;;0.95;0.70;;;;;;;;;;5054305;28;20185;-83
2022/06/18 10:58:09;;;;;;;0.90;0.60;;;;;;;;;;5056848;28;20204;-84
2022/06/18 11:00:36;;;;;;;1.00;0.80;;;;;;;;;;5043994;28;20260;-82
2022/06/18 11:03:04;;;;;;;0.90;0.50;;;;;;;;;;5068358;28;20252;-82
2022/06/18 11:05:35;;;;;;;0.90;0.63;;;;;;;;;;5053760;28;20243;-83
2022/06/18 11:08:05;;;;;;;0.90;0.68;;;;;;;;;;5056005;28;20228;-84
2022/06/18 11:10:38;;;;;;;1.00;0.60;;;;;;;;;;5056596;28;20181;-82
2022/06/18 11:13:06;;;;;;;1.20;0.90;;;;;;;;;;5054645;28;20257;-82
2022/06/18 11:15:34;;;;;;;0.90;0.60;;;;;;;;;;5056045;28;20192;-84
2022/06/18 11:18:14;;;;;;;0.90;0.50;;;;;;;;;;5038265;28;20296;-83
2022/06/18 11:20:52;;;;;;;1.20;0.80;;;;;;;;;;5054089;28;20681;-81
2022/06/18 11:23:20;;;;;;;0.90;0.60;;;;;;;;;;5054913;28;20177;-82
2022/06/18 11:25:50;;;;;;;0.90;0.70;;;;;;;;;;5054077;28;20220;-81
2022/06/18 11:28:19;;;;;;;0.90;0.60;;;;;;;;;;5053484;28;20209;-82
2022/06/18 11:30:46;;;;;;;1.00;0.80;;;;;;;;;;5037038;28;20208;-82
2022/06/18 11:33:19;;;;;;;0.90;0.60;;;;;;;;;;5053736;28;20200;-82
2022/06/18 11:35:54;;;;;;;1.20;0.80;;;;;;;;;;5038433;28;20637;-80
2022/06/18 11:38:25;;;;;;;0.90;0.60;;;;;;;;;;5045943;28;20200;-85
2022/06/18 11:40:54;;;;;;;0.90;0.60;;;;;;;;;;5045773;28;20694;-85
2022/06/18 11:43:29;;;;;;;1.23;1.07;;;;;;;;;;5037156;28;20196;-84
2022/06/18 11:45:58;;;;;;;1.00;0.80;;;;;;;;;;5037341;28;20212;-82
2022/06/18 11:48:30;;;;;;;0.90;0.60;;;;;;;;;;5053531;28;20235;-84
2022/06/18 11:51:05;;;;;;;0.90;0.70;;;;;;;;;;5037409;28;20623;-84
2022/06/18 11:53:34;;;;;;;1.30;0.93;;;;;;;;;;5055026;28;20235;-84
2022/06/18 11:56:05;;;;;;;1.00;0.77;;;;;;;;;;5070814;28;20204;-85
2022/06/18 11:58:33;;;;;;;1.10;0.80;;;;;;;;;;5053241;28;20188;-81
2022/06/18 12:01:03;;;;;;;1.00;0.65;;;;;;;;;;5053360;28;20681;-85
2022/06/18 12:03:35;;;;;;;0.90;0.57;;;;;;;;;;5053848;28;20207;-83
2022/06/18 12:06:07;;;;;;;1.57;1.07;;;;;;;;;;5036693;28;20244;-83
2022/06/18 12:08:34;;;;;;;0.90;0.70;;;;;;;;;;5038232;28;20182;-82
2022/06/18 12:11:21;;;;;;;1.00;0.60;;;;;;;;;;5070085;28;20238;-82
2022/06/18 12:13:49;;;;;;;1.00;0.70;;;;;;;;;;5052957;28;20189;-82
2022/06/18 12:16:23;;;;;;;2.15;1.95;;;;;;;;;;5053400;28;20227;-81
2022/06/18 12:18:54;;;;;;;1.00;0.60;;;;;;;;;;5052700;28;20216;-83
2022/06/18 12:21:27;;;;;;;1.10;0.70;;;;;;;;;;5036038;28;20220;-82
2022/06/18 12:23:58;;;;;;;1.10;1.00;;;;;;;;;;5064278;28;20662;-83
2022/06/18 12:26:31;;;;;;;0.90;0.60;;;;;;;;;;5051834;28;20188;-83
2022/06/18 12:29:09;;;;;;;0.90;0.75;;;;;;;;;;5052786;28;20661;-82
2022/06/18 12:31:41;;;;;;;0.90;0.60;;;;;;;;;;5053296;28;20231;-84
2022/06/18 12:34:13;;;;;;;1.00;0.82;;;;;;;;;;5052303;28;20169;-83
2022/06/18 12:36:46;;;;;;;0.90;0.60;;;;;;;;;;5043568;28;20705;-83
2022/06/18 12:39:17;;;;;;;2.80;0.90;;;;;;;;;;5050394;28;20225;-82
2022/06/18 12:41:52;;;;;;;0.90;0.60;;;;;;;;;;5065136;28;20189;-82
2022/06/18 12:44:24;;;;;;;1.00;0.70;;;;;;;;;;5050953;28;20193;-83
2022/06/18 12:46:59;;;;;;;1.00;0.80;;;;;;;;;;5053186;28;20272;-84
2022/06/18 12:49:30;;;;;;;0.90;0.50;;;;;;;;;;5052420;28;20203;-83
2022/06/18 12:52:04;;;;;;;1.25;1.15;;;;;;;;;;5035946;28;20221;-81
2022/06/18 12:54:35;;;;;;;0.90;0.50;;;;;;;;;;5034374;28;20499;-82
2022/06/18 12:57:09;;;;;;;1.13;0.82;;;;;;;;;;5051754;28;20193;-81
2022/06/18 12:59:39;;;;;;;1.20;0.73;;;;;;;;;;5036005;28;20189;-83
2022/06/18 13:02:10;;;;;;;1.00;0.60;;;;;;;;;;5051928;28;20212;-82
2022/06/18 13:04:42;;;;;;;0.90;0.60;;;;;;;;;;5052008;28;20183;-81
2022/06/18 13:07:14;;;;;;;3.75;1.58;;;;;;;;;;5043578;28;20696;-81
2022/06/18 13:09:47;;;;;;;0.90;0.60;;;;;;;;;;5052022;28;20207;-82
2022/06/18 13:12:21;;;;;;;1.17;0.75;;;;;;;;;;5052305;28;20192;-81
2022/06/18 13:14:59;;;;;;;0.90;0.70;;;;;;;;;;5034979;28;20660;-81
2022/06/18 13:17:30;;;;;;;0.90;0.60;;;;;;;;;;5035455;28;20192;-81
2022/06/18 13:20:00;;;;;;;1.00;0.60;;;;;;;;;;5053369;28;20197;-82
2022/06/18 13:22:28;;;;;;;0.90;0.60;;;;;;;;;;5051920;28;20247;-81
2022/06/18 13:30:42;;;;;;;0.90;0.60;;;;;;;;;;5052934;28;20260;-83
2022/06/18 13:33:15;;;;;;;0.90;0.70;;;;;;;;;;5059447;28;20205;-80
2022/06/18 13:35:49;;;;;;;1.00;0.70;;;;;;;;;;5032201;28;20208;-82
2022/06/18 13:38:23;;;;;;;0.90;0.50;;;;;;;;;;5051653;28;20180;-81
2022/06/18 13:40:54;;;;;;;0.90;0.70;;;;;;;;;;5068475;28;20276;-81
2022/06/18 13:43:28;;;;;;;1.00;0.90;;;;;;;;;;5051106;28;20196;-80
2022/06/18 13:45:57;;;;;;;1.75;0.85;;;;;;;;;;5051328;28;20238;-81
2022/06/18 13:48:30;;;;;;;0.90;0.50;;;;;;;;;;5037552;28;20190;-81
2022/06/18 13:50:58;;;;;;;0.90;0.57;;;;;;;;;;5054228;28;20316;-81
2022/06/18 13:53:28;;;;;;;1.45;1.08;;;;;;;;;;5039099;28;20208;-83
2022/06/18 13:55:57;;;;;;;0.90;0.50;;;;;;;;;;5055256;28;20227;-82
2022/06/18 13:58:27;;;;;;;0.90;0.60;;;;;;;;;;5039194;28;20205;-83
2022/06/18 14:01:03;;;;;;;0.90;0.60;;;;;;;;;;5055403;28;20292;-82
2022/06/18 14:03:30;;;;;;;1.00;0.70;;;;;;;;;;5052581;28;20748;-83
2022/06/18 14:06:02;;;;;;;1.02;0.90;;;;;;;;;;5071858;28;20215;-84
2022/06/18 14:08:39;;;;;;;1.13;0.60;;;;;;;;;;5055126;28;20594;-82
2022/06/18 14:11:07;;;;;;;0.90;0.50;;;;;;;;;;5054679;28;20234;-84
2022/06/18 14:13:44;;;;;;;0.90;0.60;;;;;;;;;;5045042;28;20611;-81
2022/06/18 14:16:11;;;;;;;0.90;0.50;;;;;;;;;;5019472;28;20189;-84
2022/06/18 14:18:39;;;;;;;0.90;0.50;;;;;;;;;;5047338;28;20276;-84
2022/06/18 14:21:07;;;;;;;0.90;0.50;;;;;;;;;;5055591;28;20274;-83
2022/06/18 14:23:39;;;;;;;1.10;0.70;;;;;;;;;;5055636;28;20200;-81
2022/06/18 14:26:09;;;;;;;0.90;0.60;;;;;;;;;;5055966;28;20212;-81
2022/06/18 14:28:37;;;;;;;1.42;0.75;;;;;;;;;;5055724;28;20212;-79
2022/06/18 14:31:26;;;;;;;1.10;0.90;;;;;;;;;;5054851;28;20188;-78
2022/06/18 14:33:57;;;;;;;0.90;0.50;;;;;;;;;;5058229;28;20184;-80
2022/06/18 14:36:25;;;;;;;0.90;0.50;;;;;;;;;;5050245;28;20221;-79
2022/06/18 14:38:56;;;;;;;1.10;0.90;;;;;;;;;;5074487;28;20174;-77
2022/06/18 14:41:34;;;;;;;1.40;0.77;;;;;;;;;;5071124;28;20193;-80
2022/06/18 14:44:24;;;;;;;1.05;0.95;;;;;;;;;;5072519;28;20660;-82
2022/06/18 14:47:05;;;;;;;1.00;0.70;;;;;;;;;;5057528;28;20537;-82
2022/06/18 14:49:46;;;;;;;2.90;1.23;;;;;;;;;;5035026;28;20204;-83
2022/06/18 14:52:25;;;;;;;2.80;0.77;;;;;;;;;;5035045;28;20197;-82
2022/06/18 14:55:02;;;;;;;1.00;0.77;;;;;;;;;;5048884;28;20189;-83
2022/06/18 14:57:43;;;;;;;0.90;0.63;;;;;;;;;;5053843;28;20180;-81
2022/06/18 15:00:19;;;;;;;1.00;0.70;;;;;;;;;;5054975;28;20188;-83
2022/06/18 15:02:48;;;;;;;1.08;0.88;;;;;;;;;;5053973;28;20196;-82
2022/06/18 15:05:16;;;;;;;1.75;1.60;;;;;;;;;;5054263;28;20193;-83
2022/06/18 15:07:43;;;;;;;0.90;0.60;;;;;;;;;;5038509;28;20225;-82
2022/06/18 15:10:19;;;;;;;1.38;1.15;;;;;;;;;;5049691;28;20193;-81
2022/06/18 15:12:48;;;;;;;0.90;0.68;;;;;;;;;;5054757;28;20242;-82
2022/06/18 15:15:20;;;;;;;0.90;0.60;;;;;;;;;;5071721;28;20265;-84
2022/06/18 15:23:08;;;;;;;1.52;1.13;;;;;;;;;;5054790;28;20268;-82
2022/06/18 15:25:37;;;;;;;0.90;0.60;;;;;;;;;;5070823;28;20570;-81
2022/06/18 15:28:05;;;;;;;0.90;0.50;;;;;;;;;;5054719;28;20669;-82
2022/06/18 15:30:35;;;;;;;0.90;0.50;;;;;;;;;;5041908;28;20194;-81
2022/06/18 15:33:04;;;;;;;0.90;0.60;;;;;;;;;;5034912;28;20235;-81